This is the latest recevied weather packets stored in our database for station/object SQ9RHX-11. If no packets are shown the sender has not sent any weather packets the latest 10 day(s).
| Time | Temp. | Humidity | Pressure | Rain* | Wind** | Luminosity | Snow |
|---|---|---|---|---|---|---|---|
| 1777532553 | 11.11° C | 44% | 1032.7 hPa | - | - | - | - |
| 1777530754 | 8.89° C | 51% | 1032.8 hPa | - | - | - | - |
| 1777528954 | 7.78° C | 59% | 1032.8 hPa | - | - | - | - |
| 1777527154 | 5° C | 68% | 1033 hPa | - | - | - | - |
| 1777525353 | 1.11° C | 77% | 1033 hPa | - | - | - | - |
| 1777523552 | -4.44° C | 75% | 1032.7 hPa | - | - | - | - |
| 1777521751 | -5.56° C | 74% | 1032.7 hPa | - | - | - | - |
| 1777519952 | -5.56° C | 73% | 1032.6 hPa | - | - | - | - |
| 1777518153 | -5.56° C | 73% | 1032.7 hPa | - | - | - | - |
| 1777516354 | -5.56° C | 72% | 1032.5 hPa | - | - | - | - |
| 1777514555 | -5° C | 71% | 1032.3 hPa | - | - | - | - |
| 1777510957 | -4.44° C | 69% | 1031.8 hPa | - | - | - | - |
| 1777509157 | -4.44° C | 68% | 1031.7 hPa | - | - | - | - |
| 1777503759 | -3.33° C | 64% | 1032 hPa | - | - | - | - |
| 1777501959 | -3.33° C | 62% | 1031.8 hPa | - | - | - | - |
| 1777500159 | -3.33° C | 60% | 1031.6 hPa | - | - | - | - |
| 1777498360 | -2.22° C | 59% | 1031.6 hPa | - | - | - | - |
| 1777496562 | -2.22° C | 57% | 1031.4 hPa | - | - | - | - |
| 1777494946 | -1.67° C | 53% | 1031.1 hPa | - | - | - | - |
| 1777494764 | -1.67° C | 53% | 1031.1 hPa | - | - | - | - |
| 1777492964 | -0.56° C | 50% | 1031.1 hPa | - | - | - | - |
| 1777491165 | 1.11° C | 46% | 1030.8 hPa | - | - | - | - |
| 1777489365 | 2.78° C | 40% | 1030.7 hPa | - | - | - | - |
| 1777487566 | 5.56° C | 38% | 1030.3 hPa | - | - | - | - |
| 1777485766 | 7.22° C | 36% | 1030.1 hPa | - | - | - | - |
* Rain since midnight (hover to see other rain measurements)
** Current wind speed in m/s (hover to see current wind gust speed)